Time;durP1;ratioP1;P1;durP2;ratioP2;P2;SDS_P1;SDS_P2;PMS_P1;PMS_P2;Temp;Humidity;BMP_temperature;BMP_pressure;BME280_temperature;BME280_humidity;BME280_pressure;Samples;Min_cycle;Max_cycle;Signal;HPM_P1;HPM_P2
2021/06/05 00:01:36;;;;;;;47.33;25.92;;;18.00;99.90;;;;;;5057620;28;20025;-77
2021/06/05 00:04:02;;;;;;;48.67;26.77;;;18.00;99.90;;;;;;5059249;28;20024;-77
2021/06/05 00:06:29;;;;;;;46.38;25.90;;;17.90;99.90;;;;;;5024917;28;20025;-78
2021/06/05 00:08:56;;;;;;;48.38;27.23;;;17.90;99.90;;;;;;5035428;28;20024;-78
2021/06/05 00:11:25;;;;;;;49.05;28.08;;;17.90;99.90;;;;;;5040390;28;20041;-77
2021/06/05 00:13:55;;;;;;;49.30;27.88;;;17.80;99.90;;;;;;5040797;28;20036;-81
2021/06/05 00:16:24;;;;;;;51.08;28.30;;;17.80;99.90;;;;;;5058520;28;20025;-79
2021/06/05 00:18:51;;;;;;;51.03;28.50;;;17.80;99.90;;;;;;5040769;28;20028;-78
2021/06/05 00:21:19;;;;;;;50.42;27.38;;;17.80;99.90;;;;;;5060281;28;20051;-80
2021/06/05 00:23:45;;;;;;;50.63;27.88;;;17.80;99.90;;;;;;5058699;28;20082;-77
2021/06/05 00:26:11;;;;;;;53.33;28.38;;;17.70;99.90;;;;;;5056976;28;20104;-79
2021/06/05 00:28:37;;;;;;;52.92;28.63;;;17.70;99.90;;;;;;5036518;28;20063;-80
2021/06/05 00:31:03;;;;;;;56.53;27.33;;;17.70;99.90;;;;;;5038671;28;20104;-79
2021/06/05 00:33:30;;;;;;;56.85;28.17;;;17.60;99.90;;;;;;5021297;28;20022;-78
2021/06/05 00:35:56;;;;;;;60.58;28.98;;;17.60;99.90;;;;;;5021611;28;20136;-80
2021/06/05 00:38:22;;;;;;;57.00;28.73;;;18.90;99.90;;;;;;5037965;28;20041;-76
2021/06/05 00:40:54;;;;;;;55.90;27.88;;;17.50;99.90;;;;;;5035431;28;20536;-77
2021/06/05 00:43:24;;;;;;;59.53;28.67;;;18.30;99.90;;;;;;5044764;28;20033;-75
2021/06/05 00:45:51;;;;;;;60.22;28.70;;;17.50;99.90;;;;;;5054686;28;20080;-75
2021/06/05 00:48:18;;;;;;;56.15;27.95;;;17.50;99.90;;;;;;5046704;28;20029;-77
2021/06/05 00:50:46;;;;;;;65.03;30.73;;;17.50;99.90;;;;;;5034961;28;20057;-76
2021/06/05 00:53:13;;;;;;;66.43;29.35;;;17.50;99.90;;;;;;5034995;28;20030;-77
2021/06/05 00:55:42;;;;;;;61.20;29.05;;;17.50;99.90;;;;;;5035022;28;20063;-75
2021/06/05 00:58:09;;;;;;;59.17;27.38;;;17.60;99.90;;;;;;5041520;28;20075;-75
2021/06/05 01:00:52;;;;;;;61.40;27.73;;;17.50;99.90;;;;;;5054886;28;20025;-76
2021/06/05 01:03:18;;;;;;;61.40;27.52;;;17.50;99.90;;;;;;5055308;28;20104;-75
2021/06/05 01:05:46;;;;;;;59.50;28.15;;;17.50;99.90;;;;;;5035791;28;20040;-76
2021/06/05 01:08:25;;;;;;;61.13;28.90;;;17.50;99.90;;;;;;5017103;28;20017;-77
2021/06/05 01:11:01;;;;;;;56.70;27.45;;;17.50;99.90;;;;;;5034862;28;20028;-77
2021/06/05 01:13:30;;;;;;;62.88;27.25;;;17.50;99.90;;;;;;5016812;28;20052;-77
2021/06/05 01:15:57;;;;;;;59.70;28.38;;;17.40;99.90;;;;;;5034997;23;20069;-76
2021/06/05 01:18:41;;;;;;;64.10;29.20;;;17.50;99.90;;;;;;5034788;28;20475;-77
2021/06/05 01:21:45;;;;;;;58.80;27.00;;;17.50;99.90;;;;;;5034487;28;20033;-77
2021/06/05 01:24:11;;;;;;;66.90;29.08;;;17.40;99.90;;;;;;5034726;28;20029;-77
2021/06/05 01:26:40;;;;;;;67.18;30.05;;;17.40;99.90;;;;;;5016108;28;20032;-76
2021/06/05 01:29:25;;;;;;;61.05;27.30;;;17.40;99.90;;;;;;5034132;28;20025;-77
2021/06/05 01:31:54;;;;;;;57.13;25.92;;;17.40;99.90;;;;;;5034211;28;20030;-76
2021/06/05 01:34:21;;;;;;;62.05;27.65;;;17.50;99.90;;;;;;5016493;28;20036;-76
2021/06/05 01:36:50;;;;;;;60.10;25.63;;;17.50;99.90;;;;;;5034388;28;20029;-77
2021/06/05 01:39:20;;;;;;;56.05;26.00;;;17.50;99.90;;;;;;5016376;28;20120;-77
2021/06/05 01:41:47;;;;;;;62.35;27.10;;;17.50;99.90;;;;;;5016101;28;20034;-77
2021/06/05 01:44:15;;;;;;;57.30;25.95;;;17.50;99.90;;;;;;5016343;28;20035;-76
2021/06/05 01:46:44;;;;;;;55.58;24.73;;;17.40;99.90;;;;;;5033782;28;20372;-75
2021/06/05 01:49:10;;;;;;;58.05;23.73;;;17.40;99.90;;;;;;5033709;28;20026;-76
2021/06/05 01:51:38;;;;;;;56.55;24.40;;;17.40;99.90;;;;;;5034013;28;20054;-76
2021/06/05 01:54:07;;;;;;;56.63;23.70;;;17.40;99.90;;;;;;5036564;28;20025;-77
2021/06/05 01:56:47;;;;;;;57.60;23.95;;;17.40;99.90;;;;;;5015725;28;20021;-77
2021/06/05 01:59:15;;;;;;;52.75;22.42;;;17.40;99.90;;;;;;5033866;28;20029;-76
2021/06/05 02:01:43;;;;;;;53.40;23.95;;;17.40;99.90;;;;;;5034043;28;20021;-77
2021/06/05 02:04:11;;;;;;;54.88;21.67;;;17.40;99.90;;;;;;5033966;28;20108;-76
2021/06/05 02:06:38;;;;;;;55.67;22.80;;;17.40;99.90;;;;;;5015650;28;20027;-76
2021/06/05 02:09:07;;;;;;;49.75;21.38;;;17.40;99.90;;;;;;5033571;28;20264;-76
2021/06/05 02:11:39;;;;;;;51.60;20.83;;;17.40;99.90;;;;;;5033854;28;20022;-76
2021/06/05 02:14:14;;;;;;;48.58;19.23;;;17.40;99.90;;;;;;5015883;28;20561;-77
2021/06/05 02:16:43;;;;;;;46.70;20.70;;;17.40;99.90;;;;;;5034282;28;20052;-76
2021/06/05 02:19:13;;;;;;;;;;;17.40;99.90;;;;;;5035645;28;20021;-77
2021/06/05 02:21:42;;;;;;;49.38;19.40;;;17.40;99.90;;;;;;5034344;28;19981;-77
2021/06/05 02:24:22;;;;;;;41.25;18.95;;;17.40;99.90;;;;;;5028673;23;20517;-75
2021/06/05 02:26:49;;;;;;;46.92;18.75;;;17.40;99.90;;;;;;5032239;28;20081;-77
2021/06/05 02:29:18;;;;;;;41.58;18.25;;;17.30;99.90;;;;;;5033772;28;20021;-75
2021/06/05 02:31:44;;;;;;;40.00;17.95;;;17.30;99.90;;;;;;5033536;28;20112;-76
2021/06/05 02:34:14;;;;;;;40.63;17.20;;;17.30;99.90;;;;;;5015822;28;20065;-76
2021/06/05 02:36:44;;;;;;;37.47;16.90;;;17.30;99.90;;;;;;5015923;28;20021;-76
2021/06/05 02:39:12;;;;;;;38.53;16.70;;;17.20;99.90;;;;;;5033654;28;20032;-77
2021/06/05 02:41:42;;;;;;;39.70;16.23;;;17.20;99.90;;;;;;5033816;28;20030;-75
2021/06/05 02:44:09;;;;;;;33.85;15.05;;;17.20;99.90;;;;;;5033442;28;20478;-77
2021/06/05 02:46:41;;;;;;;35.58;14.13;;;17.20;99.90;;;;;;5033139;28;20110;-76
2021/06/05 02:49:17;;;;;;;41.67;15.63;;;17.20;99.90;;;;;;5034578;28;20048;-78
2021/06/05 02:51:45;;;;;;;36.42;16.77;;;17.20;99.90;;;;;;5036396;28;20030;-79
2021/06/05 02:54:10;;;;;;;31.27;15.50;;;17.20;99.90;;;;;;5019144;28;20542;-79
2021/06/05 02:56:36;;;;;;;36.92;15.90;;;17.20;99.90;;;;;;5036067;28;20049;-79
2021/06/05 02:59:02;;;;;;;35.10;15.68;;;17.10;99.90;;;;;;5036885;28;20394;-79
2021/06/05 03:01:28;;;;;;;29.80;14.70;;;17.10;99.90;;;;;;5036003;28;20033;-78
2021/06/05 03:03:53;;;;;;;31.92;13.77;;;17.10;99.90;;;;;;5033607;28;20022;-77
2021/06/05 03:06:19;;;;;;;30.00;13.43;;;17.20;99.90;;;;;;5015614;28;20018;-78
2021/06/05 03:08:46;;;;;;;33.95;14.77;;;17.10;99.90;;;;;;5036901;28;20419;-77
2021/06/05 03:11:16;;;;;;;31.30;14.45;;;17.20;99.90;;;;;;5019417;28;20091;-77
2021/06/05 03:13:42;;;;;;;36.35;16.42;;;17.10;99.90;;;;;;5037258;28;20022;-77
2021/06/05 03:16:10;;;;;;;31.45;13.80;;;17.20;99.90;;;;;;5037128;28;20029;-77
2021/06/05 03:18:36;;;;;;;32.55;14.30;;;17.20;99.90;;;;;;5037374;28;20033;-77
2021/06/05 03:21:03;;;;;;;34.22;14.48;;;17.10;99.90;;;;;;5019250;28;20102;-77
2021/06/05 03:23:31;;;;;;;31.73;14.68;;;17.10;99.90;;;;;;5036258;28;20037;-75
2021/06/05 03:26:00;;;;;;;31.90;14.50;;;17.10;99.90;;;;;;5036954;28;20163;-76
2021/06/05 03:28:29;;;;;;;34.88;14.07;;;17.10;99.90;;;;;;5018683;28;20112;-75
2021/06/05 03:30:55;;;;;;;32.55;15.18;;;17.20;99.90;;;;;;5031232;22;20017;-77
2021/06/05 03:33:23;;;;;;;31.88;14.75;;;17.20;99.90;;;;;;5018483;28;20059;-76
2021/06/05 03:35:49;;;;;;;29.25;13.20;;;17.20;99.90;;;;;;5036131;28;20049;-76
2021/06/05 03:38:16;;;;;;;32.15;14.13;;;17.20;99.90;;;;;;5035992;28;20030;-77
2021/06/05 03:40:41;;;;;;;31.10;13.82;;;17.20;99.90;;;;;;5036243;28;20445;-76
2021/06/05 03:43:08;;;;;;;31.45;14.35;;;17.20;99.90;;;;;;5018461;28;20109;-76
2021/06/05 03:45:34;;;;;;;28.10;14.05;;;17.20;99.90;;;;;;5018143;28;20475;-76
2021/06/05 03:48:00;;;;;;;31.98;14.95;;;17.20;99.90;;;;;;5036141;28;20028;-76
2021/06/05 03:50:35;;;;;;;33.58;13.68;;;17.20;99.90;;;;;;5018246;28;20027;-76
2021/06/05 03:53:01;;;;;;;31.40;14.65;;;17.30;99.90;;;;;;5036409;28;20053;-76
2021/06/05 03:55:27;;;;;;;33.53;14.48;;;17.20;99.90;;;;;;5035727;28;20025;-76
2021/06/05 03:57:58;;;;;;;30.35;14.80;;;17.20;99.90;;;;;;5035836;28;20025;-76
2021/06/05 04:00:28;;;;;;;30.42;14.57;;;17.20;99.90;;;;;;5003322;28;20123;-76
2021/06/05 04:02:53;;;;;;;28.88;14.10;;;17.20;99.90;;;;;;5036030;28;20021;-77
2021/06/05 04:05:19;;;;;;;35.03;14.88;;;17.30;99.90;;;;;;5019028;28;20029;-77
2021/06/05 04:07:45;;;;;;;31.92;14.50;;;17.30;99.90;;;;;;5018719;28;20064;-77
2021/06/05 04:10:13;;;;;;;28.88;14.10;;;17.30;99.90;;;;;;5051202;22;20490;-77
2021/06/05 04:12:39;;;;;;;33.25;14.52;;;17.30;99.90;;;;;;5055491;28;20040;-78
2021/06/05 04:15:08;;;;;;;31.00;13.98;;;17.30;99.90;;;;;;5035262;28;20017;-77
2021/06/05 04:17:34;;;;;;;29.75;13.40;;;17.30;99.90;;;;;;5035609;28;20049;-76
2021/06/05 04:20:00;;;;;;;29.40;13.10;;;17.40;99.90;;;;;;5016903;28;20014;-77
2021/06/05 04:22:26;;;;;;;25.98;13.15;;;17.40;99.90;;;;;;5035359;28;20025;-76
2021/06/05 04:24:51;;;;;;;26.25;12.55;;;17.40;99.90;;;;;;5035908;28;20071;-77
2021/06/05 04:27:17;;;;;;;28.33;12.20;;;17.40;99.90;;;;;;5037621;28;20033;-76
2021/06/05 04:29:43;;;;;;;25.55;12.52;;;17.50;99.90;;;;;;5017716;28;20418;-77
2021/06/05 04:32:09;;;;;;;25.50;11.43;;;17.50;99.90;;;;;;5035940;28;20029;-76
2021/06/05 04:34:35;;;;;;;25.85;12.18;;;17.50;99.90;;;;;;5018319;28;20021;-77
2021/06/05 04:37:01;;;;;;;30.17;13.10;;;17.60;99.90;;;;;;5036266;28;20024;-77
2021/06/05 04:39:27;;;;;;;24.90;11.68;;;17.60;99.90;;;;;;5035073;28;20056;-76
2021/06/05 04:41:53;;;;;;;27.70;12.63;;;17.60;99.90;;;;;;5017722;28;20029;-76
2021/06/05 04:44:19;;;;;;;23.65;11.90;;;17.70;99.90;;;;;;5036547;28;20018;-76
2021/06/05 04:46:44;;;;;;;29.55;12.00;;;17.70;99.90;;;;;;5035304;28;20028;-77
2021/06/05 04:49:10;;;;;;;28.00;13.05;;;17.60;99.90;;;;;;5035792;28;20064;-76
2021/06/05 04:51:37;;;;;;;25.23;12.23;;;17.70;99.90;;;;;;5017023;28;20029;-76
2021/06/05 04:54:03;;;;;;;25.17;11.75;;;17.70;99.90;;;;;;5035008;28;20501;-76
2021/06/05 04:56:39;;;;;;;25.38;12.25;;;17.70;99.90;;;;;;5034453;28;20017;-76
2021/06/05 04:59:06;;;;;;;28.30;13.02;;;17.70;99.90;;;;;;5034677;28;20119;-76
2021/06/05 05:01:33;;;;;;;22.65;11.70;;;17.70;99.90;;;;;;5034433;28;20026;-76
2021/06/05 05:03:59;;;;;;;20.80;11.18;;;17.70;99.90;;;;;;5034675;28;20025;-76
2021/06/05 05:06:25;;;;;;;20.10;11.18;;;17.80;99.90;;;;;;5017347;28;20091;-76
2021/06/05 05:08:51;;;;;;;19.90;11.57;;;17.70;99.90;;;;;;5016670;28;20423;-76
2021/06/05 05:11:18;;;;;;;22.08;11.98;;;17.80;99.90;;;;;;5034151;28;20061;-76
2021/06/05 05:13:43;;;;;;;21.20;11.77;;;17.70;99.90;;;;;;5016578;28;20084;-76
2021/06/05 05:16:09;;;;;;;22.67;11.20;;;17.70;99.90;;;;;;5034188;28;20391;-76
2021/06/05 05:18:36;;;;;;;22.88;11.93;;;17.70;99.90;;;;;;5034534;28;20032;-76
2021/06/05 05:21:03;;;;;;;21.40;11.43;;;17.70;99.90;;;;;;5034144;28;20047;-76
2021/06/05 05:23:29;;;;;;;20.67;12.25;;;17.60;99.90;;;;;;5034418;28;20045;-76
2021/06/05 05:25:59;;;;;;;27.98;13.57;;;17.60;99.90;;;;;;5034717;28;20025;-76
2021/06/05 05:28:25;;;;;;;21.83;12.13;;;17.60;99.90;;;;;;5034841;28;20075;-76
2021/06/05 05:30:53;;;;;;;23.83;12.77;;;17.60;99.90;;;;;;5034574;28;20422;-77
2021/06/05 05:33:21;;;;;;;19.50;10.68;;;17.60;99.90;;;;;;5035832;28;20475;-77
2021/06/05 05:35:47;;;;;;;20.20;11.18;;;17.60;99.90;;;;;;5018337;28;20035;-77
2021/06/05 05:38:14;;;;;;;22.75;11.40;;;17.60;99.90;;;;;;5035097;28;20092;-77
2021/06/05 05:40:41;;;;;;;21.75;10.90;;;17.50;99.90;;;;;;5017456;28;20025;-78
2021/06/05 05:43:07;;;;;;;21.45;11.05;;;17.50;99.90;;;;;;5034768;28;20049;-76
2021/06/05 05:45:33;;;;;;;18.65;11.27;;;17.60;99.90;;;;;;5035182;28;20100;-77
2021/06/05 05:48:02;;;;;;;16.98;11.05;;;17.60;99.90;;;;;;5034986;28;20445;-78
2021/06/05 05:50:29;;;;;;;18.48;10.10;;;17.70;99.90;;;;;;5035711;28;20398;-77
2021/06/05 05:52:55;;;;;;;19.90;10.65;;;17.90;99.90;;;;;;5035145;28;20025;-78
2021/06/05 05:55:21;;;;;;;19.02;10.60;;;18.00;99.90;;;;;;5034874;28;20374;-78
2021/06/05 05:57:48;;;;;;;20.60;10.63;;;18.20;99.90;;;;;;5034541;28;20037;-76
2021/06/05 06:00:19;;;;;;;15.27;9.43;;;18.40;99.90;;;;;;5016770;28;20124;-78
2021/06/05 06:02:45;;;;;;;15.70;9.85;;;18.70;99.90;;;;;;5034817;28;20014;-78
2021/06/05 06:05:12;;;;;;;16.58;9.65;;;18.80;99.90;;;;;;5016781;28;20399;-76
2021/06/05 06:07:38;;;;;;;15.90;9.07;;;19.00;99.90;;;;;;5033909;28;20029;-77
2021/06/05 06:10:07;;;;;;;15.32;9.32;;;19.00;99.90;;;;;;5015881;28;20025;-78
2021/06/05 06:12:32;;;;;;;15.25;8.70;;;19.00;99.90;;;;;;5034141;28;20029;-77
2021/06/05 06:14:58;;;;;;;13.13;8.77;;;19.00;99.90;;;;;;5015860;28;20368;-76
2021/06/05 06:17:23;;;;;;;13.13;8.70;;;19.00;99.90;;;;;;5016148;28;20028;-76
2021/06/05 06:19:49;;;;;;;13.02;8.55;;;19.00;99.90;;;;;;5034149;28;20102;-76
2021/06/05 06:22:15;;;;;;;11.55;7.43;;;18.90;99.90;;;;;;5015538;28;20057;-75
2021/06/05 06:24:40;;;;;;;13.00;7.30;;;18.80;99.90;;;;;;5033333;28;20447;-76
2021/06/05 06:27:06;;;;;;;10.70;7.03;;;18.70;99.90;;;;;;5033818;28;20545;-76
2021/06/05 06:29:33;;;;;;;12.02;7.35;;;18.70;99.90;;;;;;5034187;28;20028;-75
2021/06/05 06:31:59;;;;;;;10.32;6.65;;;18.70;99.90;;;;;;5047407;23;20061;-75
2021/06/05 06:34:26;;;;;;;9.88;6.20;;;18.70;99.90;;;;;;5015589;28;20509;-76
2021/06/05 06:36:59;;;;;;;11.02;6.40;;;18.70;99.90;;;;;;5032320;28;20438;-75
2021/06/05 06:39:25;;;;;;;7.18;5.38;;;18.70;99.90;;;;;;5015704;28;20021;-76
2021/06/05 06:41:50;;;;;;;13.48;6.13;;;18.70;99.90;;;;;;5033423;28;20025;-76
2021/06/05 06:44:16;;;;;;;8.88;5.68;;;18.70;99.90;;;;;;5041226;28;20029;-78
2021/06/05 06:46:46;;;;;;;8.38;5.95;;;18.60;99.90;;;;;;5020792;28;20461;-76
2021/06/05 06:49:14;;;;;;;9.85;5.85;;;18.70;99.90;;;;;;5019058;28;20068;-77
2021/06/05 06:51:40;;;;;;;9.40;4.75;;;18.70;99.90;;;;;;5037333;28;20394;-75
2021/06/05 06:54:07;;;;;;;12.73;4.70;;;18.70;99.90;;;;;;5037582;28;20025;-76
2021/06/05 06:56:32;;;;;;;10.35;4.75;;;18.80;99.90;;;;;;5038249;28;20029;-77
2021/06/05 06:58:58;;;;;;;8.25;4.50;;;18.80;99.90;;;;;;5037780;28;20026;-75
2021/06/05 07:01:24;;;;;;;9.52;4.88;;;18.70;99.90;;;;;;5037478;28;20119;-76
2021/06/05 07:03:49;;;;;;;6.43;4.50;;;18.60;99.90;;;;;;5037117;28;20067;-76
2021/06/05 07:06:17;;;;;;;7.95;4.22;;;18.60;99.90;;;;;;5037333;28;20475;-75
2021/06/05 07:08:43;;;;;;;7.10;4.20;;;18.70;99.90;;;;;;5036465;28;20032;-75
2021/06/05 07:11:15;;;;;;;10.52;3.88;;;18.70;99.90;;;;;;5018774;28;20040;-75
2021/06/05 07:13:40;;;;;;;5.93;4.15;;;18.70;99.90;;;;;;5018939;28;20505;-75
2021/06/05 07:16:07;;;;;;;7.63;4.32;;;18.60;99.90;;;;;;5037248;28;20053;-77
2021/06/05 07:18:33;;;;;;;9.13;4.25;;;18.60;99.90;;;;;;5037635;28;20087;-76
2021/06/05 07:21:00;;;;;;;6.35;4.07;;;18.50;99.90;;;;;;5036476;28;20044;-76
2021/06/05 07:28:48;;;;;;;4.37;3.13;;;18.50;99.90;;;;;;5060503;28;20064;-81
2021/06/05 07:31:21;;;;;;;6.30;3.72;;;18.60;99.90;;;;;;5044295;28;20040;-79
2021/06/05 07:33:47;;;;;;;4.57;3.13;;;18.50;99.90;;;;;;5044551;28;20021;-79
2021/06/05 07:36:17;;;;;;;5.50;2.97;;;18.50;99.90;;;;;;5030836;28;20497;-80
2021/06/05 07:38:43;;;;;;;5.57;3.33;;;18.50;99.90;;;;;;5042585;28;20045;-80
2021/06/05 07:41:09;;;;;;;5.28;3.42;;;18.50;99.90;;;;;;5044258;28;20041;-80
2021/06/05 07:43:34;;;;;;;9.48;5.82;;;18.60;99.90;;;;;;5024980;28;20060;-80
2021/06/05 07:46:01;;;;;;;10.70;6.82;;;18.60;99.90;;;;;;5024643;28;20501;-81
2021/06/05 07:48:29;;;;;;;12.73;7.00;;;20.20;99.90;;;;;;5042715;28;20029;-80
2021/06/05 07:50:56;;;;;;;13.07;6.75;;;18.60;99.90;;;;;;5025885;28;20021;-80
2021/06/05 07:53:21;;;;;;;9.63;5.03;;;18.80;99.90;;;;;;5024278;28;20125;-81
2021/06/05 07:55:47;;;;;;;5.00;3.65;;;18.70;99.90;;;;;;5043496;28;20057;-80
2021/06/05 07:58:13;;;;;;;4.32;3.28;;;18.60;99.90;;;;;;5114048;22;20005;-76
2021/06/05 08:00:39;;;;;;;4.32;3.33;;;22.00;99.90;;;;;;5067818;22;20041;-77
2021/06/05 08:03:07;;;;;;;4.32;3.10;;;18.70;99.90;;;;;;5057087;28;20071;-76
2021/06/05 08:05:33;;;;;;;5.22;3.90;;;18.60;99.90;;;;;;5056369;28;20065;-77
2021/06/05 08:07:59;;;;;;;4.80;3.60;;;18.70;99.90;;;;;;5037967;28;20021;-76
2021/06/05 08:10:26;;;;;;;4.65;3.40;;;18.80;99.90;;;;;;5054039;28;20067;-77
2021/06/05 08:12:52;;;;;;;6.68;3.90;;;18.80;99.90;;;;;;5038545;28;20017;-75
2021/06/05 08:15:31;;;;;;;4.35;3.60;;;18.90;99.90;;;;;;5074216;22;20098;-75
2021/06/05 08:17:58;;;;;;;4.05;3.10;;;19.00;99.90;;;;;;5056579;28;20021;-76
2021/06/05 08:20:29;;;;;;;6.70;3.60;;;19.20;99.90;;;;;;5054978;28;20035;-77
2021/06/05 08:22:56;;;;;;;5.85;3.83;;;19.20;99.90;;;;;;5056406;28;20018;-76
2021/06/05 08:25:23;;;;;;;6.03;3.78;;;19.20;99.90;;;;;;5057044;28;20028;-76
2021/06/05 08:27:50;;;;;;;6.05;3.10;;;19.10;99.90;;;;;;5046712;28;20025;-76
2021/06/05 08:30:20;;;;;;;4.07;3.50;;;19.00;99.90;;;;;;5019268;28;20105;-77
2021/06/05 08:32:46;;;;;;;4.32;3.42;;;19.10;99.90;;;;;;5037386;28;20032;-77
2021/06/05 08:35:12;;;;;;;3.45;2.83;;;19.10;99.90;;;;;;5037214;28;20017;-77
2021/06/05 08:37:38;;;;;;;4.13;3.00;;;19.10;99.90;;;;;;5036439;28;20547;-78
2021/06/05 08:40:07;;;;;;;3.63;3.03;;;19.10;99.90;;;;;;5019051;28;20100;-77
2021/06/05 08:42:42;;;;;;;6.53;3.97;;;19.20;99.90;;;;;;5036729;28;20049;-79
2021/06/05 08:45:12;;;;;;;4.30;3.30;;;19.20;99.90;;;;;;5036017;28;20022;-75
2021/06/05 08:47:38;;;;;;;3.75;3.15;;;19.20;99.90;;;;;;5027279;28;20047;-76
2021/06/05 08:50:12;;;;;;;6.65;3.58;;;19.20;99.90;;;;;;5038655;28;20214;-78
2021/06/05 08:52:44;;;;;;;3.67;2.85;;;19.20;99.90;;;;;;5037776;28;20025;-75
2021/06/05 08:55:26;;;;;;;4.20;3.58;;;19.20;99.90;;;;;;5037628;28;20020;-75
2021/06/05 08:58:00;;;;;;;7.25;4.85;;;19.10;99.90;;;;;;5067777;23;20049;-78
2021/06/05 09:00:33;;;;;;;8.40;5.75;;;19.10;99.90;;;;;;5037272;28;20561;-76
2021/06/05 09:03:11;;;;;;;10.32;6.28;;;19.10;99.90;;;;;;5055468;28;20036;-75
2021/06/05 09:05:44;;;;;;;9.85;5.88;;;19.10;99.90;;;;;;5029364;28;20061;-78
2021/06/05 09:08:15;;;;;;;9.52;7.30;;;19.10;99.90;;;;;;5017205;28;20025;-77
2021/06/05 09:10:41;;;;;;;10.10;6.95;;;19.00;99.90;;;;;;5058369;22;20045;-76
2021/06/05 09:13:07;;;;;;;10.35;7.18;;;19.00;99.90;;;;;;5037154;28;20025;-77
2021/06/05 09:15:35;;;;;;;12.02;7.45;;;18.90;99.90;;;;;;5054532;28;20021;-76
2021/06/05 09:18:03;;;;;;;11.02;7.70;;;18.90;99.90;;;;;;5053936;28;20100;-76
2021/06/05 09:20:42;;;;;;;9.38;7.53;;;18.90;99.90;;;;;;5021600;28;20033;-77
2021/06/05 09:23:32;;;;;;;11.00;7.50;;;18.90;99.90;;;;;;5016902;28;20014;-76
2021/06/05 09:26:16;;;;;;;10.02;7.78;;;18.90;99.90;;;;;;5035051;28;20463;-78
2021/06/05 09:28:41;;;;;;;9.98;7.25;;;18.90;99.90;;;;;;5047948;28;20382;-75
2021/06/05 09:31:54;;;;;;;10.90;7.20;;;19.00;99.90;;;;;;5054245;28;20021;-76
2021/06/05 09:34:23;;;;;;;10.63;7.28;;;19.10;99.90;;;;;;5027641;28;20486;-74
2021/06/05 09:36:49;;;;;;;12.68;7.80;;;19.20;99.90;;;;;;5053649;28;20436;-77
2021/06/05 09:39:34;;;;;;;8.88;6.45;;;19.40;99.90;;;;;;5034520;28;20021;-77
2021/06/05 09:42:00;;;;;;;9.25;7.35;;;19.50;99.90;;;;;;5034732;28;20021;-76
2021/06/05 09:44:38;;;;;;;10.30;6.78;;;19.70;99.90;;;;;;5016385;28;20037;-75
2021/06/05 09:47:22;;;;;;;10.82;7.40;;;19.80;99.90;;;;;;5034048;28;20061;-75
2021/06/05 09:49:56;;;;;;;9.85;6.88;;;20.00;99.90;;;;;;5016128;28;20024;-75
2021/06/05 09:52:24;;;;;;;8.95;7.03;;;20.20;99.90;;;;;;5016029;28;20389;-75
2021/06/05 09:54:53;;;;;;;8.73;7.10;;;20.30;99.90;;;;;;5033545;28;20037;-74
2021/06/05 09:57:25;;;;;;;12.95;7.35;;;20.40;99.90;;;;;;5050712;28;20048;-75
2021/06/05 10:00:25;;;;;;;10.60;7.43;;;20.50;99.90;;;;;;5053400;28;20025;-75
2021/06/05 10:03:14;;;;;;;12.65;8.65;;;20.70;99.90;;;;;;5048722;28;20120;-75
2021/06/05 10:05:42;;;;;;;11.18;7.38;;;20.80;99.90;;;;;;5030363;28;20040;-75
2021/06/05 10:08:37;;;;;;;10.07;7.32;;;21.00;99.90;;;;;;5053313;28;20044;-75
2021/06/05 10:11:18;;;;;;;11.88;7.50;;;21.10;99.90;;;;;;5035345;28;20029;-75
2021/06/05 10:13:50;;;;;;;11.23;8.48;;;21.20;99.90;;;;;;5053349;28;20067;-75
2021/06/05 10:16:19;;;;;;;10.75;7.75;;;21.40;99.90;;;;;;5019447;28;20029;-75
2021/06/05 10:19:11;;;;;;;11.63;8.25;;;21.50;99.90;;;;;;5033553;28;20097;-75
2021/06/05 10:21:46;;;;;;;12.02;8.50;;;21.60;99.90;;;;;;5004499;28;20029;-77
2021/06/05 10:24:41;;;;;;;12.95;9.57;;;21.70;99.90;;;;;;5034509;28;20091;-78
2021/06/05 10:27:16;;;;;;;13.15;8.65;;;21.70;99.90;;;;;;5017201;28;20029;-75
2021/06/05 10:29:46;;;;;;;16.20;11.13;;;21.80;99.90;;;;;;5017106;28;20435;-78
2021/06/05 10:32:33;;;;;;;11.57;9.07;;;21.70;99.90;;;;;;5016206;28;20036;-75
2021/06/05 10:35:07;;;;;;;14.00;9.88;;;21.70;99.90;;;;;;5034107;28;20053;-75
2021/06/05 10:37:37;;;;;;;16.58;10.95;;;21.90;99.90;;;;;;5034571;28;20108;-78
2021/06/05 10:40:15;;;;;;;17.00;11.80;;;22.00;99.90;;;;;;5016693;28;20021;-75
2021/06/05 10:42:46;;;;;;;17.63;11.90;;;22.00;99.90;;;;;;5033578;28;20037;-76
2021/06/05 10:45:16;;;;;;;18.85;12.40;;;22.10;99.90;;;;;;5075009;22;20048;-76
2021/06/05 10:47:48;;;;;;;20.40;12.07;;;22.20;99.90;;;;;;5015911;28;20079;-76
2021/06/05 10:50:23;;;;;;;21.33;14.30;;;22.10;99.90;;;;;;5015961;28;20100;-76
2021/06/05 10:52:58;;;;;;;23.90;15.35;;;22.10;99.90;;;;;;5033768;28;20355;-77
2021/06/05 10:55:39;;;;;;;28.27;15.60;;;22.00;99.90;;;;;;5033954;28;20051;-75
2021/06/05 10:58:22;;;;;;;39.08;17.85;;;21.80;99.90;;;;;;5015413;28;20025;-75
2021/06/05 11:01:00;;;;;;;32.88;17.38;;;21.60;99.90;;;;;;5016886;28;20037;-76
2021/06/05 11:03:26;;;;;;;33.95;16.42;;;21.40;99.90;;;;;;5017261;28;20040;-79
2021/06/05 11:06:05;;;;;;;31.38;16.70;;;21.10;99.90;;;;;;5037824;28;20025;-78
2021/06/05 11:08:35;;;;;;;31.33;16.52;;;20.90;99.90;;;;;;5035888;28;20029;-78
2021/06/05 11:11:04;;;;;;;41.45;17.85;;;20.70;99.90;;;;;;5018497;28;20025;-82
2021/06/05 11:13:35;;;;;;;38.00;15.77;;;20.40;99.90;;;;;;5019327;28;20069;-82
2021/06/05 11:16:05;;;;;;;32.42;14.15;;;20.30;99.90;;;;;;5035682;28;20029;-82
2021/06/05 11:18:42;;;;;;;28.13;13.25;;;20.30;99.90;;;;;;5036577;28;20022;-81
2021/06/05 11:21:20;;;;;;;26.50;11.93;;;20.10;99.90;;;;;;5018459;28;20021;-81
2021/06/05 11:24:14;;;;;;;28.85;12.60;;;20.00;99.90;;;;;;5018064;28;20033;-81
2021/06/05 11:26:59;;;;;;;27.95;11.80;;;19.90;99.90;;;;;;5032911;28;20026;-81
2021/06/05 11:29:28;;;;;;;25.58;11.40;;;20.00;99.90;;;;;;5020767;28;20100;-81
2021/06/05 11:31:55;;;;;;;19.73;10.77;;;19.90;99.90;;;;;;5040114;28;20491;-81
2021/06/05 11:34:32;;;;;;;19.02;9.68;;;20.10;99.90;;;;;;5022239;28;20022;-81
2021/06/05 11:36:58;;;;;;;16.45;8.25;;;20.10;99.90;;;;;;5039368;28;20497;-81
2021/06/05 11:39:26;;;;;;;18.60;9.23;;;20.20;99.90;;;;;;5039247;28;20084;-81
2021/06/05 11:42:27;;;;;;;18.35;8.32;;;20.10;99.90;;;;;;5039706;28;20040;-81
2021/06/05 11:44:55;;;;;;;16.42;8.52;;;20.10;99.90;;;;;;4985085;28;20041;-81
2021/06/05 11:47:21;;;;;;;18.10;8.70;;;20.10;99.90;;;;;;5021644;28;20021;-81
2021/06/05 11:50:18;;;;;;;17.85;8.05;;;21.80;99.90;;;;;;5039140;28;20094;-82
2021/06/05 11:55:45;;;;;;;16.08;7.75;;;20.20;99.90;;;;;;5023612;28;20050;-87
2021/06/05 11:58:24;;;;;;;18.58;8.93;;;20.20;99.90;;;;;;5000773;28;20100;-87
2021/06/05 12:01:27;;;;;;;18.38;8.43;;;20.30;99.90;;;;;;5000367;28;20394;-87
2021/06/05 12:03:59;;;;;;;17.13;8.55;;;20.30;99.90;;;;;;4999885;28;20091;-83
2021/06/05 12:06:44;;;;;;;16.00;7.88;;;20.30;99.90;;;;;;5045786;28;20022;-84
2021/06/05 12:09:11;;;;;;;16.63;8.00;;;21.40;99.90;;;;;;5046797;28;20029;-84
2021/06/05 12:11:49;;;;;;;15.32;8.40;;;21.30;99.90;;;;;;5045548;28;20422;-83
2021/06/05 12:15:00;;;;;;;13.82;8.52;;;20.10;99.90;;;;;;5045201;28;20051;-84
2021/06/05 12:17:27;;;;;;;15.90;8.98;;;20.10;99.90;;;;;;5045955;28;20037;-84
2021/06/05 12:19:53;;;;;;;21.23;9.45;;;20.10;99.90;;;;;;5045013;28;20025;-83
2021/06/05 12:22:31;;;;;;;19.73;10.02;;;20.90;99.90;;;;;;5028750;28;20098;-83
2021/06/05 12:24:57;;;;;;;19.60;9.88;;;21.00;99.90;;;;;;5187906;22;20511;-80
2021/06/05 12:27:36;;;;;;;18.10;9.57;;;20.00;99.90;;;;;;5058929;28;20025;-80
2021/06/05 12:30:10;;;;;;;;;;;19.90;99.90;;;;;;5043198;28;20021;-81
2021/06/05 12:32:36;;;;;;;18.88;9.63;;;19.90;99.90;;;;;;5041864;28;19959;-80
2021/06/05 12:35:43;;;;;;;21.10;9.88;;;19.80;99.90;;;;;;5025355;28;20478;-80
2021/06/05 12:38:13;;;;;;;18.30;8.75;;;19.70;99.90;;;;;;5039731;28;20045;-80
2021/06/05 12:40:57;;;;;;;14.60;7.97;;;19.80;99.90;;;;;;5036236;28;20032;-81
2021/06/05 12:43:29;;;;;;;22.67;10.00;;;19.70;99.90;;;;;;5023194;28;20017;-80
2021/06/05 12:46:06;;;;;;;15.60;8.88;;;19.70;99.90;;;;;;5040626;28;20018;-80
2021/06/05 12:48:33;;;;;;;16.00;8.27;;;19.60;99.90;;;;;;5023717;28;20549;-79
2021/06/05 12:50:59;;;;;;;16.65;7.85;;;19.60;99.90;;;;;;5040135;28;20112;-80
2021/06/05 12:53:29;;;;;;;20.52;9.02;;;19.60;99.90;;;;;;5039154;28;20386;-80
2021/06/05 12:55:59;;;;;;;16.95;8.43;;;19.70;99.90;;;;;;5023686;28;20021;-79
2021/06/05 12:58:43;;;;;;;17.05;8.75;;;19.70;99.90;;;;;;5036650;28;20512;-80